sensor_id;sensor_type;location;lat;lon;timestamp;temperature;humidity
13697;DHT22;6920;50.080;8.226;2023-07-08T00:01:36;21.00;84.00
13697;DHT22;6920;50.080;8.226;2023-07-08T00:04:03;20.90;84.20
13697;DHT22;6920;50.080;8.226;2023-07-08T00:08:58;21.00;84.00
13697;DHT22;6920;50.080;8.226;2023-07-08T00:11:27;21.00;84.30
13697;DHT22;6920;50.080;8.226;2023-07-08T00:13:55;21.00;84.30
13697;DHT22;6920;50.080;8.226;2023-07-08T00:16:24;21.00;84.00
13697;DHT22;6920;50.080;8.226;2023-07-08T00:18:52;20.90;84.20
13697;DHT22;6920;50.080;8.226;2023-07-08T00:21:20;20.90;84.20
13697;DHT22;6920;50.080;8.226;2023-07-08T00:23:48;20.90;84.30
13697;DHT22;6920;50.080;8.226;2023-07-08T00:26:19;20.90;84.60
13697;DHT22;6920;50.080;8.226;2023-07-08T00:31:16;20.80;84.90
13697;DHT22;6920;50.080;8.226;2023-07-08T00:33:49;20.70;85.10
13697;DHT22;6920;50.080;8.226;2023-07-08T00:36:18;20.70;85.50
13697;DHT22;6920;50.080;8.226;2023-07-08T00:38:46;20.70;85.40
13697;DHT22;6920;50.080;8.226;2023-07-08T00:41:17;20.80;85.00
13697;DHT22;6920;50.080;8.226;2023-07-08T00:43:49;20.70;85.40
13697;DHT22;6920;50.080;8.226;2023-07-08T00:46:34;20.60;85.90
13697;DHT22;6920;50.080;8.226;2023-07-08T00:49:17;20.70;86.30
13697;DHT22;6920;50.080;8.226;2023-07-08T00:51:53;20.60;85.60
13697;DHT22;6920;50.080;8.226;2023-07-08T00:54:20;20.70;85.60
13697;DHT22;6920;50.080;8.226;2023-07-08T00:56:50;20.70;85.50
13697;DHT22;6920;50.080;8.226;2023-07-08T00:59:22;20.80;85.00
13697;DHT22;6920;50.080;8.226;2023-07-08T01:01:50;20.90;84.80
13697;DHT22;6920;50.080;8.226;2023-07-08T01:04:24;20.90;85.00
13697;DHT22;6920;50.080;8.226;2023-07-08T01:06:57;20.90;85.00
13697;DHT22;6920;50.080;8.226;2023-07-08T01:09:28;20.90;85.10
13697;DHT22;6920;50.080;8.226;2023-07-08T01:12:00;20.90;85.10
13697;DHT22;6920;50.080;8.226;2023-07-08T01:14:32;21.00;85.20
13697;DHT22;6920;50.080;8.226;2023-07-08T01:17:01;21.00;85.50
13697;DHT22;6920;50.080;8.226;2023-07-08T01:19:29;21.00;85.40
13697;DHT22;6920;50.080;8.226;2023-07-08T01:22:01;21.00;85.40
13697;DHT22;6920;50.080;8.226;2023-07-08T01:24:30;21.10;85.50
13697;DHT22;6920;50.080;8.226;2023-07-08T01:26:59;20.90;86.00
13697;DHT22;6920;50.080;8.226;2023-07-08T01:29:27;20.80;86.40
13697;DHT22;6920;50.080;8.226;2023-07-08T01:31:55;20.80;86.20
13697;DHT22;6920;50.080;8.226;2023-07-08T01:36:52;20.80;86.10
13697;DHT22;6920;50.080;8.226;2023-07-08T01:39:22;20.90;86.70
13697;DHT22;6920;50.080;8.226;2023-07-08T01:41:50;21.00;86.80
13697;DHT22;6920;50.080;8.226;2023-07-08T01:44:27;21.00;86.20
13697;DHT22;6920;50.080;8.226;2023-07-08T01:46:57;21.00;86.20
13697;DHT22;6920;50.080;8.226;2023-07-08T01:49:25;21.00;86.30
13697;DHT22;6920;50.080;8.226;2023-07-08T01:51:53;20.90;86.60
13697;DHT22;6920;50.080;8.226;2023-07-08T01:54:22;20.90;86.40
13697;DHT22;6920;50.080;8.226;2023-07-08T01:56:54;20.90;86.30
13697;DHT22;6920;50.080;8.226;2023-07-08T01:59:22;20.80;86.40
13697;DHT22;6920;50.080;8.226;2023-07-08T02:04:21;20.90;84.50
13697;DHT22;6920;50.080;8.226;2023-07-08T02:06:51;20.90;85.10
13697;DHT22;6920;50.080;8.226;2023-07-08T02:09:19;20.90;85.10
13697;DHT22;6920;50.080;8.226;2023-07-08T02:11:47;20.90;85.70
13697;DHT22;6920;50.080;8.226;2023-07-08T02:14:15;20.80;85.80
13697;DHT22;6920;50.080;8.226;2023-07-08T02:19:10;20.60;87.30
13697;DHT22;6920;50.080;8.226;2023-07-08T02:21:37;20.60;87.60
13697;DHT22;6920;50.080;8.226;2023-07-08T02:24:05;20.60;87.50
13697;DHT22;6920;50.080;8.226;2023-07-08T02:26:33;20.70;86.80
13697;DHT22;6920;50.080;8.226;2023-07-08T02:29:02;20.80;86.40
13697;DHT22;6920;50.080;8.226;2023-07-08T02:31:29;20.80;85.90
13697;DHT22;6920;50.080;8.226;2023-07-08T02:33:57;20.80;85.90
13697;DHT22;6920;50.080;8.226;2023-07-08T02:36:24;20.70;85.50
13697;DHT22;6920;50.080;8.226;2023-07-08T02:38:51;20.70;86.50
13697;DHT22;6920;50.080;8.226;2023-07-08T02:41:19;20.60;86.50
13697;DHT22;6920;50.080;8.226;2023-07-08T02:46:15;20.60;86.70
13697;DHT22;6920;50.080;8.226;2023-07-08T02:48:42;20.40;87.10
13697;DHT22;6920;50.080;8.226;2023-07-08T02:51:09;20.40;87.50
13697;DHT22;6920;50.080;8.226;2023-07-08T02:53:37;20.30;87.70
13697;DHT22;6920;50.080;8.226;2023-07-08T02:56:04;20.30;88.20
13697;DHT22;6920;50.080;8.226;2023-07-08T02:58:31;20.30;88.50
13697;DHT22;6920;50.080;8.226;2023-07-08T03:01:00;20.20;88.80
13697;DHT22;6920;50.080;8.226;2023-07-08T03:03:29;20.20;88.50
13697;DHT22;6920;50.080;8.226;2023-07-08T03:05:57;20.10;89.00
13697;DHT22;6920;50.080;8.226;2023-07-08T03:08:25;20.20;89.20
13697;DHT22;6920;50.080;8.226;2023-07-08T03:10:56;20.30;88.80
13697;DHT22;6920;50.080;8.226;2023-07-08T03:13:23;20.30;88.50
13697;DHT22;6920;50.080;8.226;2023-07-08T03:15:51;20.10;88.90
13697;DHT22;6920;50.080;8.226;2023-07-08T03:18:20;20.20;89.30
13697;DHT22;6920;50.080;8.226;2023-07-08T03:20:50;20.20;89.20
13697;DHT22;6920;50.080;8.226;2023-07-08T03:23:18;20.20;89.60
13697;DHT22;6920;50.080;8.226;2023-07-08T03:25:45;20.10;90.10
13697;DHT22;6920;50.080;8.226;2023-07-08T03:28:12;20.10;90.00
13697;DHT22;6920;50.080;8.226;2023-07-08T03:30:40;19.90;90.10
13697;DHT22;6920;50.080;8.226;2023-07-08T03:33:08;20.00;90.20
13697;DHT22;6920;50.080;8.226;2023-07-08T03:35:36;20.00;90.00
13697;DHT22;6920;50.080;8.226;2023-07-08T03:38:05;20.00;90.00
13697;DHT22;6920;50.080;8.226;2023-07-08T03:40:33;20.10;89.60
13697;DHT22;6920;50.080;8.226;2023-07-08T03:43:00;20.10;89.30
13697;DHT22;6920;50.080;8.226;2023-07-08T03:45:27;20.10;89.00
13697;DHT22;6920;50.080;8.226;2023-07-08T03:47:54;20.20;88.70
13697;DHT22;6920;50.080;8.226;2023-07-08T03:50:23;20.20;88.30
13697;DHT22;6920;50.080;8.226;2023-07-08T03:52:53;20.20;88.90
13697;DHT22;6920;50.080;8.226;2023-07-08T03:55:23;20.30;88.50
13697;DHT22;6920;50.080;8.226;2023-07-08T04:00:18;20.30;88.20
13697;DHT22;6920;50.080;8.226;2023-07-08T04:02:46;20.30;88.40
13697;DHT22;6920;50.080;8.226;2023-07-08T04:05:14;20.30;88.20
13697;DHT22;6920;50.080;8.226;2023-07-08T04:07:41;20.30;88.50
13697;DHT22;6920;50.080;8.226;2023-07-08T04:10:09;20.20;88.60
13697;DHT22;6920;50.080;8.226;2023-07-08T04:12:38;20.20;88.80
13697;DHT22;6920;50.080;8.226;2023-07-08T04:15:08;20.20;88.60
13697;DHT22;6920;50.080;8.226;2023-07-08T04:17:36;20.20;89.30
13697;DHT22;6920;50.080;8.226;2023-07-08T04:20:05;20.30;88.60
13697;DHT22;6920;50.080;8.226;2023-07-08T04:25:01;20.50;88.80
13697;DHT22;6920;50.080;8.226;2023-07-08T04:27:29;20.50;89.10
13697;DHT22;6920;50.080;8.226;2023-07-08T04:29:57;20.40;89.10
13697;DHT22;6920;50.080;8.226;2023-07-08T04:32:25;20.50;89.00
13697;DHT22;6920;50.080;8.226;2023-07-08T04:34:52;20.50;88.80
13697;DHT22;6920;50.080;8.226;2023-07-08T04:37:19;20.60;88.40
13697;DHT22;6920;50.080;8.226;2023-07-08T04:39:47;20.60;87.80
13697;DHT22;6920;50.080;8.226;2023-07-08T04:42:14;20.60;88.00
13697;DHT22;6920;50.080;8.226;2023-07-08T04:47:12;20.70;88.40
13697;DHT22;6920;50.080;8.226;2023-07-08T04:49:39;20.70;88.60
13697;DHT22;6920;50.080;8.226;2023-07-08T04:52:09;20.70;88.60
13697;DHT22;6920;50.080;8.226;2023-07-08T04:54:36;20.70;89.00
13697;DHT22;6920;50.080;8.226;2023-07-08T04:57:04;20.70;89.30
13697;DHT22;6920;50.080;8.226;2023-07-08T04:59:31;20.70;89.50
13697;DHT22;6920;50.080;8.226;2023-07-08T05:02:00;20.80;89.50
13697;DHT22;6920;50.080;8.226;2023-07-08T05:04:53;20.90;89.40
13697;DHT22;6920;50.080;8.226;2023-07-08T05:07:22;20.90;89.30
13697;DHT22;6920;50.080;8.226;2023-07-08T05:09:51;21.00;89.90
13697;DHT22;6920;50.080;8.226;2023-07-08T05:12:22;21.00;90.50
13697;DHT22;6920;50.080;8.226;2023-07-08T05:17:16;21.00;90.20
13697;DHT22;6920;50.080;8.226;2023-07-08T05:19:44;21.00;90.30
13697;DHT22;6920;50.080;8.226;2023-07-08T05:22:13;21.10;90.50
13697;DHT22;6920;50.080;8.226;2023-07-08T05:24:40;21.10;90.90
13697;DHT22;6920;50.080;8.226;2023-07-08T05:27:10;21.10;90.90
13697;DHT22;6920;50.080;8.226;2023-07-08T05:29:39;21.10;90.80
13697;DHT22;6920;50.080;8.226;2023-07-08T05:32:07;21.20;90.80
13697;DHT22;6920;50.080;8.226;2023-07-08T05:34:34;21.20;90.60
13697;DHT22;6920;50.080;8.226;2023-07-08T05:37:02;21.20;90.80
13697;DHT22;6920;50.080;8.226;2023-07-08T05:39:31;21.20;90.60
13697;DHT22;6920;50.080;8.226;2023-07-08T05:41:59;21.10;90.70
13697;DHT22;6920;50.080;8.226;2023-07-08T05:44:26;21.10;91.00
13697;DHT22;6920;50.080;8.226;2023-07-08T05:46:53;21.10;91.40
13697;DHT22;6920;50.080;8.226;2023-07-08T05:49:21;21.10;91.70
13697;DHT22;6920;50.080;8.226;2023-07-08T05:54:15;21.20;91.60
13697;DHT22;6920;50.080;8.226;2023-07-08T05:56:44;21.30;91.50
13697;DHT22;6920;50.080;8.226;2023-07-08T05:59:11;21.30;91.50
13697;DHT22;6920;50.080;8.226;2023-07-08T06:01:39;21.40;91.70
13697;DHT22;6920;50.080;8.226;2023-07-08T06:04:07;21.50;91.90
13697;DHT22;6920;50.080;8.226;2023-07-08T06:06:34;21.40;92.20
13697;DHT22;6920;50.080;8.226;2023-07-08T06:09:01;21.30;92.50
13697;DHT22;6920;50.080;8.226;2023-07-08T06:11:29;21.30;92.40
13697;DHT22;6920;50.080;8.226;2023-07-08T06:13:58;21.30;92.10
13697;DHT22;6920;50.080;8.226;2023-07-08T06:16:28;21.40;92.10
13697;DHT22;6920;50.080;8.226;2023-07-08T06:18:56;21.50;91.70
13697;DHT22;6920;50.080;8.226;2023-07-08T06:21:24;21.50;91.80
13697;DHT22;6920;50.080;8.226;2023-07-08T06:23:51;21.50;92.60
13697;DHT22;6920;50.080;8.226;2023-07-08T06:26:19;21.50;93.90
13697;DHT22;6920;50.080;8.226;2023-07-08T06:31:15;21.20;94.30
13697;DHT22;6920;50.080;8.226;2023-07-08T06:33:42;21.20;94.40
13697;DHT22;6920;50.080;8.226;2023-07-08T06:36:10;21.20;94.70
13697;DHT22;6920;50.080;8.226;2023-07-08T06:38:37;21.30;94.40
13697;DHT22;6920;50.080;8.226;2023-07-08T06:41:04;21.40;95.20
13697;DHT22;6920;50.080;8.226;2023-07-08T06:43:32;21.40;95.60
13697;DHT22;6920;50.080;8.226;2023-07-08T06:48:28;21.50;95.40
13697;DHT22;6920;50.080;8.226;2023-07-08T06:50:56;21.40;95.30
13697;DHT22;6920;50.080;8.226;2023-07-08T06:55:51;21.40;95.40
13697;DHT22;6920;50.080;8.226;2023-07-08T06:58:20;21.50;95.90
13697;DHT22;6920;50.080;8.226;2023-07-08T07:00:48;21.50;96.70
13697;DHT22;6920;50.080;8.226;2023-07-08T07:03:15;21.60;97.60
13697;DHT22;6920;50.080;8.226;2023-07-08T07:05:44;21.50;98.90
13697;DHT22;6920;50.080;8.226;2023-07-08T07:08:12;21.40;99.90
13697;DHT22;6920;50.080;8.226;2023-07-08T07:10:39;21.20;99.90
13697;DHT22;6920;50.080;8.226;2023-07-08T07:13:06;20.80;99.90
13697;DHT22;6920;50.080;8.226;2023-07-08T07:15:34;20.70;99.90
13697;DHT22;6920;50.080;8.226;2023-07-08T07:18:01;20.80;99.90
13697;DHT22;6920;50.080;8.226;2023-07-08T07:20:30;21.10;99.90
13697;DHT22;6920;50.080;8.226;2023-07-08T07:22:59;21.00;99.90
13697;DHT22;6920;50.080;8.226;2023-07-08T07:25:26;21.10;99.90
13697;DHT22;6920;50.080;8.226;2023-07-08T07:27:54;21.00;99.90
13697;DHT22;6920;50.080;8.226;2023-07-08T07:30:22;21.20;99.90
13697;DHT22;6920;50.080;8.226;2023-07-08T07:32:49;21.40;99.90
13697;DHT22;6920;50.080;8.226;2023-07-08T07:35:16;22.30;99.90
13697;DHT22;6920;50.080;8.226;2023-07-08T07:37:44;22.90;99.90
13697;DHT22;6920;50.080;8.226;2023-07-08T07:40:13;23.20;99.90
13697;DHT22;6920;50.080;8.226;2023-07-08T07:42:44;24.00;99.90
13697;DHT22;6920;50.080;8.226;2023-07-08T07:45:12;24.60;99.50
13697;DHT22;6920;50.080;8.226;2023-07-08T07:47:40;25.00;99.60
13697;DHT22;6920;50.080;8.226;2023-07-08T07:50:09;25.50;97.70
13697;DHT22;6920;50.080;8.226;2023-07-08T07:55:07;26.00;94.60
13697;DHT22;6920;50.080;8.226;2023-07-08T07:57:35;26.40;94.50
13697;DHT22;6920;50.080;8.226;2023-07-08T08:00:03;26.80;94.00
13697;DHT22;6920;50.080;8.226;2023-07-08T08:02:36;27.10;92.40
13697;DHT22;6920;50.080;8.226;2023-07-08T08:05:03;27.60;91.80
13697;DHT22;6920;50.080;8.226;2023-07-08T08:09:58;28.20;89.30
13697;DHT22;6920;50.080;8.226;2023-07-08T08:12:26;28.40;87.60
13697;DHT22;6920;50.080;8.226;2023-07-08T08:14:54;28.60;86.50
13697;DHT22;6920;50.080;8.226;2023-07-08T08:17:22;28.70;86.20
13697;DHT22;6920;50.080;8.226;2023-07-08T08:19:49;29.10;85.50
13697;DHT22;6920;50.080;8.226;2023-07-08T08:22:16;29.80;83.20
13697;DHT22;6920;50.080;8.226;2023-07-08T08:27:11;29.50;79.60
13697;DHT22;6920;50.080;8.226;2023-07-08T08:29:41;29.90;79.40
13697;DHT22;6920;50.080;8.226;2023-07-08T08:32:10;30.60;76.70
13697;DHT22;6920;50.080;8.226;2023-07-08T08:34:40;30.90;74.20
13697;DHT22;6920;50.080;8.226;2023-07-08T08:37:08;31.00;73.80
13697;DHT22;6920;50.080;8.226;2023-07-08T08:39:35;31.20;70.10
13697;DHT22;6920;50.080;8.226;2023-07-08T08:42:03;30.80;71.80
13697;DHT22;6920;50.080;8.226;2023-07-08T08:44:34;30.50;72.50
13697;DHT22;6920;50.080;8.226;2023-07-08T08:47:08;30.30;71.60
13697;DHT22;6920;50.080;8.226;2023-07-08T08:49:41;30.50;71.80
13697;DHT22;6920;50.080;8.226;2023-07-08T08:52:12;30.30;70.80
13697;DHT22;6920;50.080;8.226;2023-07-08T08:54:41;30.00;70.10
13697;DHT22;6920;50.080;8.226;2023-07-08T08:57:31;29.50;69.70
13697;DHT22;6920;50.080;8.226;2023-07-08T09:00:10;29.30;68.30
13697;DHT22;6920;50.080;8.226;2023-07-08T09:02:46;29.00;67.50
13697;DHT22;6920;50.080;8.226;2023-07-08T09:05:18;29.00;69.10
13697;DHT22;6920;50.080;8.226;2023-07-08T09:07:54;29.00;69.00
13697;DHT22;6920;50.080;8.226;2023-07-08T09:10:35;28.90;68.90
13697;DHT22;6920;50.080;8.226;2023-07-08T09:13:06;29.00;68.90
13697;DHT22;6920;50.080;8.226;2023-07-08T09:15:34;29.10;69.50
13697;DHT22;6920;50.080;8.226;2023-07-08T09:18:17;29.00;69.50
13697;DHT22;6920;50.080;8.226;2023-07-08T09:20:47;29.00;70.20
13697;DHT22;6920;50.080;8.226;2023-07-08T09:23:19;29.00;69.00
13697;DHT22;6920;50.080;8.226;2023-07-08T09:25:51;28.90;69.10
13697;DHT22;6920;50.080;8.226;2023-07-08T09:28:19;28.80;69.50
13697;DHT22;6920;50.080;8.226;2023-07-08T09:30:50;28.30;69.60
13697;DHT22;6920;50.080;8.226;2023-07-08T09:33:20;28.40;70.00
13697;DHT22;6920;50.080;8.226;2023-07-08T09:35:50;28.40;70.10
13697;DHT22;6920;50.080;8.226;2023-07-08T09:38:21;28.50;70.00
13697;DHT22;6920;50.080;8.226;2023-07-08T09:40:51;28.50;70.30
13697;DHT22;6920;50.080;8.226;2023-07-08T09:43:26;28.20;70.60
13697;DHT22;6920;50.080;8.226;2023-07-08T09:45:57;28.20;70.70
13697;DHT22;6920;50.080;8.226;2023-07-08T09:48:28;28.30;70.10
13697;DHT22;6920;50.080;8.226;2023-07-08T09:50:58;28.90;70.90
13697;DHT22;6920;50.080;8.226;2023-07-08T09:53:25;29.50;69.70
13697;DHT22;6920;50.080;8.226;2023-07-08T09:55:54;30.10;68.40
13697;DHT22;6920;50.080;8.226;2023-07-08T09:58:25;30.60;69.00
13697;DHT22;6920;50.080;8.226;2023-07-08T10:00:55;31.00;67.70
13697;DHT22;6920;50.080;8.226;2023-07-08T10:03:28;31.40;65.90
13697;DHT22;6920;50.080;8.226;2023-07-08T10:05:58;31.70;65.00
13697;DHT22;6920;50.080;8.226;2023-07-08T10:08:37;31.60;64.70
13697;DHT22;6920;50.080;8.226;2023-07-08T10:11:17;30.80;66.00
13697;DHT22;6920;50.080;8.226;2023-07-08T10:13:49;30.90;67.00
13697;DHT22;6920;50.080;8.226;2023-07-08T10:16:21;30.90;66.40
13697;DHT22;6920;50.080;8.226;2023-07-08T10:18:49;30.70;66.10
13697;DHT22;6920;50.080;8.226;2023-07-08T10:21:26;31.20;66.30
13697;DHT22;6920;50.080;8.226;2023-07-08T10:24:04;31.60;63.90
13697;DHT22;6920;50.080;8.226;2023-07-08T10:26:39;31.60;63.70
13697;DHT22;6920;50.080;8.226;2023-07-08T10:29:18;31.10;64.00
13697;DHT22;6920;50.080;8.226;2023-07-08T10:32:00;30.60;64.40
13697;DHT22;6920;50.080;8.226;2023-07-08T10:34:39;30.50;64.60
13697;DHT22;6920;50.080;8.226;2023-07-08T10:37:19;30.80;64.30
13697;DHT22;6920;50.080;8.226;2023-07-08T10:39:55;30.80;64.10
13697;DHT22;6920;50.080;8.226;2023-07-08T10:42:49;31.20;65.50
13697;DHT22;6920;50.080;8.226;2023-07-08T10:45:23;32.00;64.20
13697;DHT22;6920;50.080;8.226;2023-07-08T10:48:01;32.70;63.00
13697;DHT22;6920;50.080;8.226;2023-07-08T10:50:45;32.90;61.70
13697;DHT22;6920;50.080;8.226;2023-07-08T10:53:33;33.10;62.10
13697;DHT22;6920;50.080;8.226;2023-07-08T10:56:14;33.20;62.80
13697;DHT22;6920;50.080;8.226;2023-07-08T10:58:52;33.40;61.40
13697;DHT22;6920;50.080;8.226;2023-07-08T11:01:30;33.40;60.40
13697;DHT22;6920;50.080;8.226;2023-07-08T11:04:13;33.40;60.90
13697;DHT22;6920;50.080;8.226;2023-07-08T11:06:48;33.40;60.90
13697;DHT22;6920;50.080;8.226;2023-07-08T11:09:23;33.40;61.70
13697;DHT22;6920;50.080;8.226;2023-07-08T11:11:56;32.40;63.80
13697;DHT22;6920;50.080;8.226;2023-07-08T11:14:26;33.00;62.00
13697;DHT22;6920;50.080;8.226;2023-07-08T11:17:06;33.70;61.90
13697;DHT22;6920;50.080;8.226;2023-07-08T11:19:38;33.70;62.50
13697;DHT22;6920;50.080;8.226;2023-07-08T11:22:10;34.10;60.80
13697;DHT22;6920;50.080;8.226;2023-07-08T11:24:42;34.20;61.70
13697;DHT22;6920;50.080;8.226;2023-07-08T11:27:15;34.10;61.40
13697;DHT22;6920;50.080;8.226;2023-07-08T11:29:48;33.70;61.30
13697;DHT22;6920;50.080;8.226;2023-07-08T11:32:18;34.00;60.90
13697;DHT22;6920;50.080;8.226;2023-07-08T11:34:47;34.10;61.60
13697;DHT22;6920;50.080;8.226;2023-07-08T11:37:16;34.30;61.20
13697;DHT22;6920;50.080;8.226;2023-07-08T11:39:46;34.60;61.10
13697;DHT22;6920;50.080;8.226;2023-07-08T11:42:18;34.20;61.60
13697;DHT22;6920;50.080;8.226;2023-07-08T11:44:48;34.10;60.10
13697;DHT22;6920;50.080;8.226;2023-07-08T11:47:20;34.60;62.60
13697;DHT22;6920;50.080;8.226;2023-07-08T11:49:49;35.10;60.10
13697;DHT22;6920;50.080;8.226;2023-07-08T11:52:19;35.40;61.30
13697;DHT22;6920;50.080;8.226;2023-07-08T11:54:48;35.20;59.80
13697;DHT22;6920;50.080;8.226;2023-07-08T11:57:27;35.10;60.60
13697;DHT22;6920;50.080;8.226;2023-07-08T12:00:14;35.00;60.80
13697;DHT22;6920;50.080;8.226;2023-07-08T12:02:49;34.90;61.20
13697;DHT22;6920;50.080;8.226;2023-07-08T12:05:17;35.10;59.80
13697;DHT22;6920;50.080;8.226;2023-07-08T12:07:46;35.20;60.70
13697;DHT22;6920;50.080;8.226;2023-07-08T12:10:17;35.10;61.00
13697;DHT22;6920;50.080;8.226;2023-07-08T12:12:45;34.80;60.50
13697;DHT22;6920;50.080;8.226;2023-07-08T12:15:17;35.10;60.70
13697;DHT22;6920;50.080;8.226;2023-07-08T12:20:22;35.00;61.60
13697;DHT22;6920;50.080;8.226;2023-07-08T12:22:50;35.10;60.10
13697;DHT22;6920;50.080;8.226;2023-07-08T12:25:21;34.80;59.60
13697;DHT22;6920;50.080;8.226;2023-07-08T12:27:49;34.60;60.60
13697;DHT22;6920;50.080;8.226;2023-07-08T12:30:16;35.10;59.60
13697;DHT22;6920;50.080;8.226;2023-07-08T12:32:44;35.30;59.50
13697;DHT22;6920;50.080;8.226;2023-07-08T12:35:21;35.30;58.70
13697;DHT22;6920;50.080;8.226;2023-07-08T12:42:45;35.70;59.10
13697;DHT22;6920;50.080;8.226;2023-07-08T12:45:19;35.60;58.10
13697;DHT22;6920;50.080;8.226;2023-07-08T12:47:49;35.40;58.20
13697;DHT22;6920;50.080;8.226;2023-07-08T12:50:16;35.40;57.40
13697;DHT22;6920;50.080;8.226;2023-07-08T12:52:46;35.60;56.70
13697;DHT22;6920;50.080;8.226;2023-07-08T12:55:15;35.90;57.40
13697;DHT22;6920;50.080;8.226;2023-07-08T12:57:51;35.90;56.00
13697;DHT22;6920;50.080;8.226;2023-07-08T13:00:23;35.60;55.00
13697;DHT22;6920;50.080;8.226;2023-07-08T13:02:58;35.60;54.80
13697;DHT22;6920;50.080;8.226;2023-07-08T13:05:27;35.80;54.80
13697;DHT22;6920;50.080;8.226;2023-07-08T13:07:56;35.80;53.70
13697;DHT22;6920;50.080;8.226;2023-07-08T13:10:26;35.70;55.00
13697;DHT22;6920;50.080;8.226;2023-07-08T13:13:02;35.90;55.30
13697;DHT22;6920;50.080;8.226;2023-07-08T13:15:35;36.00;56.00
13697;DHT22;6920;50.080;8.226;2023-07-08T13:18:08;35.80;55.90
13697;DHT22;6920;50.080;8.226;2023-07-08T13:20:40;35.70;55.70
13697;DHT22;6920;50.080;8.226;2023-07-08T13:23:08;34.10;57.10
13697;DHT22;6920;50.080;8.226;2023-07-08T13:25:38;34.30;57.60
13697;DHT22;6920;50.080;8.226;2023-07-08T13:28:22;35.10;55.50
13697;DHT22;6920;50.080;8.226;2023-07-08T13:30:55;35.40;55.00
13697;DHT22;6920;50.080;8.226;2023-07-08T13:33:28;35.80;54.90
13697;DHT22;6920;50.080;8.226;2023-07-08T13:35:55;35.80;54.50
13697;DHT22;6920;50.080;8.226;2023-07-08T13:38:24;35.70;54.30
13697;DHT22;6920;50.080;8.226;2023-07-08T13:40:54;36.10;53.70
13697;DHT22;6920;50.080;8.226;2023-07-08T13:43:32;35.80;52.70
13697;DHT22;6920;50.080;8.226;2023-07-08T13:46:00;35.80;52.40
13697;DHT22;6920;50.080;8.226;2023-07-08T13:48:30;35.90;52.20
13697;DHT22;6920;50.080;8.226;2023-07-08T13:51:02;35.90;51.10
13697;DHT22;6920;50.080;8.226;2023-07-08T13:53:43;35.80;51.40
13697;DHT22;6920;50.080;8.226;2023-07-08T13:56:14;36.00;51.40
13697;DHT22;6920;50.080;8.226;2023-07-08T13:58:50;35.60;51.80
13697;DHT22;6920;50.080;8.226;2023-07-08T14:01:20;35.90;52.40
13697;DHT22;6920;50.080;8.226;2023-07-08T14:03:52;36.20;52.40
13697;DHT22;6920;50.080;8.226;2023-07-08T14:06:21;35.60;52.10
13697;DHT22;6920;50.080;8.226;2023-07-08T14:09:00;34.90;52.50
13697;DHT22;6920;50.080;8.226;2023-07-08T14:11:29;35.20;54.00
13697;DHT22;6920;50.080;8.226;2023-07-08T14:14:07;35.70;53.60
13697;DHT22;6920;50.080;8.226;2023-07-08T14:16:43;35.90;53.90
13697;DHT22;6920;50.080;8.226;2023-07-08T14:19:16;36.10;53.20
13697;DHT22;6920;50.080;8.226;2023-07-08T14:21:54;36.20;53.00
13697;DHT22;6920;50.080;8.226;2023-07-08T14:24:22;36.00;53.20
13697;DHT22;6920;50.080;8.226;2023-07-08T14:26:52;36.10;53.40
13697;DHT22;6920;50.080;8.226;2023-07-08T14:29:22;36.50;52.10
13697;DHT22;6920;50.080;8.226;2023-07-08T14:31:50;36.30;52.60
13697;DHT22;6920;50.080;8.226;2023-07-08T14:34:23;36.50;51.90
13697;DHT22;6920;50.080;8.226;2023-07-08T14:36:53;36.10;52.20
13697;DHT22;6920;50.080;8.226;2023-07-08T14:39:21;36.30;52.10
13697;DHT22;6920;50.080;8.226;2023-07-08T14:41:50;36.30;52.00
13697;DHT22;6920;50.080;8.226;2023-07-08T14:44:24;36.30;51.70
13697;DHT22;6920;50.080;8.226;2023-07-08T14:46:52;36.60;51.80
13697;DHT22;6920;50.080;8.226;2023-07-08T14:49:22;36.30;52.10
13697;DHT22;6920;50.080;8.226;2023-07-08T14:51:51;36.50;50.90
13697;DHT22;6920;50.080;8.226;2023-07-08T14:54:20;36.60;50.10
13697;DHT22;6920;50.080;8.226;2023-07-08T14:56:49;36.50;51.20
13697;DHT22;6920;50.080;8.226;2023-07-08T14:59:20;36.60;50.40
13697;DHT22;6920;50.080;8.226;2023-07-08T15:01:51;36.30;50.70
13697;DHT22;6920;50.080;8.226;2023-07-08T15:04:19;36.20;51.60
13697;DHT22;6920;50.080;8.226;2023-07-08T15:06:47;36.20;51.50
13697;DHT22;6920;50.080;8.226;2023-07-08T15:09:16;36.40;51.40
13697;DHT22;6920;50.080;8.226;2023-07-08T15:11:45;36.50;50.90
13697;DHT22;6920;50.080;8.226;2023-07-08T15:14:19;36.50;50.70
13697;DHT22;6920;50.080;8.226;2023-07-08T15:19:58;36.10;50.40
13697;DHT22;6920;50.080;8.226;2023-07-08T15:22:26;36.30;50.50
13697;DHT22;6920;50.080;8.226;2023-07-08T15:24:55;36.20;50.90
13697;DHT22;6920;50.080;8.226;2023-07-08T15:27:22;36.30;50.40
13697;DHT22;6920;50.080;8.226;2023-07-08T15:29:50;36.10;49.70
13697;DHT22;6920;50.080;8.226;2023-07-08T15:32:17;36.10;48.40
13697;DHT22;6920;50.080;8.226;2023-07-08T15:34:47;35.90;49.00
13697;DHT22;6920;50.080;8.226;2023-07-08T15:37:17;35.60;48.70
13697;DHT22;6920;50.080;8.226;2023-07-08T15:39:45;35.50;50.30
13697;DHT22;6920;50.080;8.226;2023-07-08T15:42:14;35.20;49.20
13697;DHT22;6920;50.080;8.226;2023-07-08T15:44:42;35.30;49.60
13697;DHT22;6920;50.080;8.226;2023-07-08T15:47:12;35.40;50.40
13697;DHT22;6920;50.080;8.226;2023-07-08T15:49:41;35.50;50.50
13697;DHT22;6920;50.080;8.226;2023-07-08T15:52:10;35.70;50.50
13697;DHT22;6920;50.080;8.226;2023-07-08T15:54:39;35.80;50.20
13697;DHT22;6920;50.080;8.226;2023-07-08T15:57:08;35.60;50.60
13697;DHT22;6920;50.080;8.226;2023-07-08T15:59:39;35.60;50.80
13697;DHT22;6920;50.080;8.226;2023-07-08T16:02:20;35.50;50.00
13697;DHT22;6920;50.080;8.226;2023-07-08T16:04:51;35.50;50.10
13697;DHT22;6920;50.080;8.226;2023-07-08T16:07:19;35.20;51.50
13697;DHT22;6920;50.080;8.226;2023-07-08T16:09:51;34.80;51.20
13697;DHT22;6920;50.080;8.226;2023-07-08T16:12:23;34.70;50.70
13697;DHT22;6920;50.080;8.226;2023-07-08T16:14:50;34.30;51.40
13697;DHT22;6920;50.080;8.226;2023-07-08T16:17:17;34.20;51.80
13697;DHT22;6920;50.080;8.226;2023-07-08T16:19:44;34.20;52.00
13697;DHT22;6920;50.080;8.226;2023-07-08T16:22:13;34.10;52.60
13697;DHT22;6920;50.080;8.226;2023-07-08T16:24:41;34.30;52.00
13697;DHT22;6920;50.080;8.226;2023-07-08T16:27:14;34.30;52.50
13697;DHT22;6920;50.080;8.226;2023-07-08T16:29:44;34.20;53.20
13697;DHT22;6920;50.080;8.226;2023-07-08T16:32:14;34.30;53.40
13697;DHT22;6920;50.080;8.226;2023-07-08T16:34:43;34.10;53.60
13697;DHT22;6920;50.080;8.226;2023-07-08T16:37:13;34.00;53.90
13697;DHT22;6920;50.080;8.226;2023-07-08T16:39:54;34.00;54.00
13697;DHT22;6920;50.080;8.226;2023-07-08T16:42:38;33.90;54.50
13697;DHT22;6920;50.080;8.226;2023-07-08T16:45:10;33.80;55.30
13697;DHT22;6920;50.080;8.226;2023-07-08T16:47:39;33.70;55.60
13697;DHT22;6920;50.080;8.226;2023-07-08T16:50:11;33.60;55.80
13697;DHT22;6920;50.080;8.226;2023-07-08T16:52:55;33.60;56.50
13697;DHT22;6920;50.080;8.226;2023-07-08T16:55:25;33.50;56.80
13697;DHT22;6920;50.080;8.226;2023-07-08T16:58:14;33.50;57.10